sensor_id;sensor_type;location;lat;lon;timestamp;pressure;altitude;pressure_sealevel;temperature;humidity
8294;BME280;4185;41.506;24.938;2023-08-07T00:02:20;92879.28;;;18.42;76.21
8294;BME280;4185;41.506;24.938;2023-08-07T00:04:47;92886.19;;;18.35;75.87
8294;BME280;4185;41.506;24.938;2023-08-07T00:07:13;92883.47;;;18.27;76.18
8294;BME280;4185;41.506;24.938;2023-08-07T00:09:40;92886.41;;;18.30;76.46
8294;BME280;4185;41.506;24.938;2023-08-07T00:12:09;92884.56;;;18.32;76.52
8294;BME280;4185;41.506;24.938;2023-08-07T00:14:35;92882.00;;;18.34;76.09
8294;BME280;4185;41.506;24.938;2023-08-07T00:17:03;92878.69;;;18.36;76.39
8294;BME280;4185;41.506;24.938;2023-08-07T00:19:31;92877.94;;;18.35;76.44
8294;BME280;4185;41.506;24.938;2023-08-07T00:21:57;92891.34;;;18.31;76.37
8294;BME280;4185;41.506;24.938;2023-08-07T00:24:24;92893.19;;;18.21;76.82
8294;BME280;4185;41.506;24.938;2023-08-07T00:26:51;92893.72;;;18.19;76.54
8294;BME280;4185;41.506;24.938;2023-08-07T00:29:19;92872.81;;;18.24;76.48
8294;BME280;4185;41.506;24.938;2023-08-07T00:31:46;92890.06;;;18.24;76.82
8294;BME280;4185;41.506;24.938;2023-08-07T00:34:12;92889.31;;;18.16;76.34
8294;BME280;4185;41.506;24.938;2023-08-07T00:36:39;92886.00;;;18.03;76.44
8294;BME280;4185;41.506;24.938;2023-08-07T00:39:06;92898.06;;;17.85;76.60
8294;BME280;4185;41.506;24.938;2023-08-07T00:41:33;92899.88;;;17.75;76.72
8294;BME280;4185;41.506;24.938;2023-08-07T00:44:00;92894.00;;;17.63;77.30
8294;BME280;4185;41.506;24.938;2023-08-07T00:46:29;92897.09;;;17.60;77.96
8294;BME280;4185;41.506;24.938;2023-08-07T00:48:56;92902.63;;;17.67;78.02
8294;BME280;4185;41.506;24.938;2023-08-07T00:51:24;92895.09;;;17.68;78.34
8294;BME280;4185;41.506;24.938;2023-08-07T00:53:50;92903.72;;;17.72;78.03
8294;BME280;4185;41.506;24.938;2023-08-07T00:56:17;92904.09;;;17.76;77.70
8294;BME280;4185;41.506;24.938;2023-08-07T00:58:44;92909.78;;;17.78;77.61
8294;BME280;4185;41.506;24.938;2023-08-07T01:01:11;92917.47;;;17.72;77.85
8294;BME280;4185;41.506;24.938;2023-08-07T01:03:39;92916.50;;;17.62;77.70
8294;BME280;4185;41.506;24.938;2023-08-07T01:06:06;92917.75;;;17.53;78.00
8294;BME280;4185;41.506;24.938;2023-08-07T01:08:33;92915.03;;;17.61;77.70
8294;BME280;4185;41.506;24.938;2023-08-07T01:11:14;92906.28;;;17.70;77.45
8294;BME280;4185;41.506;24.938;2023-08-07T01:13:49;92909.38;;;17.66;77.79
8294;BME280;4185;41.506;24.938;2023-08-07T01:16:21;92910.88;;;17.75;77.23
8294;BME280;4185;41.506;24.938;2023-08-07T01:18:50;92918.38;;;17.74;77.46
8294;BME280;4185;41.506;24.938;2023-08-07T01:21:18;92923.66;;;17.65;77.75
8294;BME280;4185;41.506;24.938;2023-08-07T01:23:47;92915.38;;;17.57;77.75
8294;BME280;4185;41.506;24.938;2023-08-07T01:26:15;92918.13;;;17.57;77.97
8294;BME280;4185;41.506;24.938;2023-08-07T01:28:48;92928.59;;;17.59;78.21
8294;BME280;4185;41.506;24.938;2023-08-07T01:31:20;92924.75;;;17.62;77.74
8294;BME280;4185;41.506;24.938;2023-08-07T01:33:56;92923.25;;;17.53;77.60
8294;BME280;4185;41.506;24.938;2023-08-07T01:36:24;92929.38;;;17.39;78.22
8294;BME280;4185;41.506;24.938;2023-08-07T01:38:55;92930.47;;;17.36;78.54
8294;BME280;4185;41.506;24.938;2023-08-07T01:41:22;92941.09;;;17.32;78.63
8294;BME280;4185;41.506;24.938;2023-08-07T01:43:50;92943.84;;;17.32;78.63
8294;BME280;4185;41.506;24.938;2023-08-07T01:46:18;92934.09;;;17.31;78.81
8294;BME280;4185;41.506;24.938;2023-08-07T01:48:45;92941.22;;;17.26;78.94
8294;BME280;4185;41.506;24.938;2023-08-07T01:51:11;92936.47;;;17.27;79.00
8294;BME280;4185;41.506;24.938;2023-08-07T01:53:38;92937.38;;;17.22;78.90
8294;BME280;4185;41.506;24.938;2023-08-07T01:56:06;92945.34;;;17.12;79.33
8294;BME280;4185;41.506;24.938;2023-08-07T01:58:33;92956.47;;;17.06;78.93
8294;BME280;4185;41.506;24.938;2023-08-07T02:01:00;92954.06;;;16.95;79.80
8294;BME280;4185;41.506;24.938;2023-08-07T02:03:26;92957.28;;;16.86;79.51
8294;BME280;4185;41.506;24.938;2023-08-07T02:05:53;92957.63;;;16.83;79.43
8294;BME280;4185;41.506;24.938;2023-08-07T02:08:20;92948.06;;;16.76;79.66
8294;BME280;4185;41.506;24.938;2023-08-07T02:10:47;92955.16;;;16.72;79.79
8294;BME280;4185;41.506;24.938;2023-08-07T02:13:15;92959.34;;;16.65;79.19
8294;BME280;4185;41.506;24.938;2023-08-07T02:15:41;92957.84;;;16.64;79.96
8294;BME280;4185;41.506;24.938;2023-08-07T02:18:08;92954.06;;;16.67;79.91
8294;BME280;4185;41.506;24.938;2023-08-07T02:20:35;92960.78;;;16.66;79.88
8294;BME280;4185;41.506;24.938;2023-08-07T02:23:02;92965.75;;;16.68;79.81
8294;BME280;4185;41.506;24.938;2023-08-07T02:25:29;92967.22;;;16.69;80.05
8294;BME280;4185;41.506;24.938;2023-08-07T02:27:55;92970.34;;;16.73;80.01
8294;BME280;4185;41.506;24.938;2023-08-07T02:30:24;92970.75;;;16.77;79.58
8294;BME280;4185;41.506;24.938;2023-08-07T02:32:50;92972.53;;;16.74;79.98
8294;BME280;4185;41.506;24.938;2023-08-07T02:35:17;92980.97;;;16.76;79.68
8294;BME280;4185;41.506;24.938;2023-08-07T02:37:44;92982.63;;;16.79;79.57
8294;BME280;4185;41.506;24.938;2023-08-07T02:40:11;92981.59;;;16.82;79.43
8294;BME280;4185;41.506;24.938;2023-08-07T02:42:40;92986.47;;;16.76;79.76
8294;BME280;4185;41.506;24.938;2023-08-07T02:45:08;92994.97;;;16.65;79.49
8294;BME280;4185;41.506;24.938;2023-08-07T02:47:38;92991.38;;;16.50;79.68
8294;BME280;4185;41.506;24.938;2023-08-07T02:50:06;92988.03;;;16.44;80.75
8294;BME280;4185;41.506;24.938;2023-08-07T02:52:33;92989.59;;;16.39;80.06
8294;BME280;4185;41.506;24.938;2023-08-07T02:55:00;92995.91;;;16.27;80.03
8294;BME280;4185;41.506;24.938;2023-08-07T02:57:27;93003.16;;;16.24;80.71
8294;BME280;4185;41.506;24.938;2023-08-07T02:59:53;92999.56;;;16.29;80.59
8294;BME280;4185;41.506;24.938;2023-08-07T03:02:20;93010.28;;;16.40;80.52
8294;BME280;4185;41.506;24.938;2023-08-07T03:04:48;93009.41;;;16.45;80.05
8294;BME280;4185;41.506;24.938;2023-08-07T03:07:15;93019.88;;;16.47;80.03
8294;BME280;4185;41.506;24.938;2023-08-07T03:09:45;93023.53;;;16.49;79.86
8294;BME280;4185;41.506;24.938;2023-08-07T03:12:12;93022.88;;;16.56;79.70
8294;BME280;4185;41.506;24.938;2023-08-07T03:14:38;93011.22;;;16.63;79.22
8294;BME280;4185;41.506;24.938;2023-08-07T03:17:05;93028.22;;;16.62;78.90
8294;BME280;4185;41.506;24.938;2023-08-07T03:19:32;93025.19;;;16.52;78.98
8294;BME280;4185;41.506;24.938;2023-08-07T03:22:00;93017.63;;;16.45;79.23
8294;BME280;4185;41.506;24.938;2023-08-07T03:24:27;93024.59;;;16.46;79.39
8294;BME280;4185;41.506;24.938;2023-08-07T03:26:54;93016.88;;;16.45;79.45
8294;BME280;4185;41.506;24.938;2023-08-07T03:29:20;93013.56;;;16.39;79.31
8294;BME280;4185;41.506;24.938;2023-08-07T03:31:47;93017.50;;;16.30;80.01
8294;BME280;4185;41.506;24.938;2023-08-07T03:34:14;93017.06;;;16.26;80.15
8294;BME280;4185;41.506;24.938;2023-08-07T03:36:41;93018.16;;;16.23;79.83
8294;BME280;4185;41.506;24.938;2023-08-07T03:39:09;93016.41;;;16.13;80.50
8294;BME280;4185;41.506;24.938;2023-08-07T03:41:37;93020.13;;;16.02;80.28
8294;BME280;4185;41.506;24.938;2023-08-07T03:44:04;93028.88;;;16.01;80.97
8294;BME280;4185;41.506;24.938;2023-08-07T03:46:30;93028.53;;;16.04;80.81
8294;BME280;4185;41.506;24.938;2023-08-07T03:48:57;93025.25;;;16.06;80.42
8294;BME280;4185;41.506;24.938;2023-08-07T03:51:24;93022.81;;;16.15;80.39
8294;BME280;4185;41.506;24.938;2023-08-07T03:53:51;93030.84;;;16.13;80.24
8294;BME280;4185;41.506;24.938;2023-08-07T03:56:19;93026.81;;;16.14;80.08
8294;BME280;4185;41.506;24.938;2023-08-07T03:58:46;93029.56;;;16.14;80.08
8294;BME280;4185;41.506;24.938;2023-08-07T04:01:14;93025.84;;;16.25;80.27
8294;BME280;4185;41.506;24.938;2023-08-07T04:03:41;93035.06;;;16.35;80.13
8294;BME280;4185;41.506;24.938;2023-08-07T04:06:08;93034.41;;;16.42;79.50
8294;BME280;4185;41.506;24.938;2023-08-07T04:08:38;93040.00;;;16.36;79.72
8294;BME280;4185;41.506;24.938;2023-08-07T04:11:05;93035.59;;;16.33;80.10
8294;BME280;4185;41.506;24.938;2023-08-07T04:13:34;93037.81;;;16.35;79.51
8294;BME280;4185;41.506;24.938;2023-08-07T04:16:01;93034.75;;;16.38;79.82
8294;BME280;4185;41.506;24.938;2023-08-07T04:18:29;93028.69;;;16.53;78.92
8294;BME280;4185;41.506;24.938;2023-08-07T04:20:57;93043.00;;;16.59;78.17
8294;BME280;4185;41.506;24.938;2023-08-07T04:23:24;93044.25;;;16.58;78.03
8294;BME280;4185;41.506;24.938;2023-08-07T04:25:52;93037.44;;;16.51;78.19
8294;BME280;4185;41.506;24.938;2023-08-07T04:28:19;93045.66;;;16.51;78.53
8294;BME280;4185;41.506;24.938;2023-08-07T04:30:50;93051.63;;;16.63;78.74
8294;BME280;4185;41.506;24.938;2023-08-07T04:33:18;93048.94;;;16.70;77.86
8294;BME280;4185;41.506;24.938;2023-08-07T04:35:45;93049.16;;;16.72;77.88
8294;BME280;4185;41.506;24.938;2023-08-07T04:38:12;93057.06;;;16.76;77.92
8294;BME280;4185;41.506;24.938;2023-08-07T04:40:43;93060.94;;;16.80;77.37
8294;BME280;4185;41.506;24.938;2023-08-07T04:43:10;93061.47;;;16.79;77.74
8294;BME280;4185;41.506;24.938;2023-08-07T04:45:37;93060.38;;;16.82;77.90
8294;BME280;4185;41.506;24.938;2023-08-07T04:48:07;93063.78;;;16.95;77.73
8294;BME280;4185;41.506;24.938;2023-08-07T04:50:33;93063.84;;;17.03;77.58
8294;BME280;4185;41.506;24.938;2023-08-07T04:53:00;93060.38;;;17.02;78.07
8294;BME280;4185;41.506;24.938;2023-08-07T04:55:27;93062.03;;;17.05;77.43
8294;BME280;4185;41.506;24.938;2023-08-07T04:57:54;93058.63;;;17.13;77.45
8294;BME280;4185;41.506;24.938;2023-08-07T05:00:21;93066.53;;;17.24;77.49
8294;BME280;4185;41.506;24.938;2023-08-07T05:02:48;93073.03;;;17.34;77.17
8294;BME280;4185;41.506;24.938;2023-08-07T05:05:17;93069.69;;;17.48;76.94
8294;BME280;4185;41.506;24.938;2023-08-07T05:07:46;93063.16;;;17.59;76.47
8294;BME280;4185;41.506;24.938;2023-08-07T05:10:12;93062.44;;;17.66;76.60
8294;BME280;4185;41.506;24.938;2023-08-07T05:12:39;93063.94;;;17.74;76.78
8294;BME280;4185;41.506;24.938;2023-08-07T05:15:07;93069.16;;;17.85;76.27
8294;BME280;4185;41.506;24.938;2023-08-07T05:17:33;93060.22;;;17.92;76.53
8294;BME280;4185;41.506;24.938;2023-08-07T05:20:00;93062.06;;;18.05;76.06
8294;BME280;4185;41.506;24.938;2023-08-07T05:22:29;93063.56;;;18.13;76.64
8294;BME280;4185;41.506;24.938;2023-08-07T05:24:56;93074.06;;;18.22;76.88
8294;BME280;4185;41.506;24.938;2023-08-07T05:27:22;93069.66;;;18.27;77.28
8294;BME280;4185;41.506;24.938;2023-08-07T05:29:49;93070.06;;;18.31;76.99
8294;BME280;4185;41.506;24.938;2023-08-07T05:32:16;93069.31;;;18.31;77.87
8294;BME280;4185;41.506;24.938;2023-08-07T05:34:43;93066.00;;;18.32;78.15
8294;BME280;4185;41.506;24.938;2023-08-07T05:37:09;93073.00;;;18.33;77.50
8294;BME280;4185;41.506;24.938;2023-08-07T05:39:38;93073.78;;;18.49;77.62
8294;BME280;4185;41.506;24.938;2023-08-07T05:42:05;93073.09;;;18.63;77.21
8294;BME280;4185;41.506;24.938;2023-08-07T05:44:33;93072.53;;;18.72;77.72
8294;BME280;4185;41.506;24.938;2023-08-07T05:47:00;93076.06;;;18.80;77.01
8294;BME280;4185;41.506;24.938;2023-08-07T05:49:26;93080.44;;;18.91;77.07
8294;BME280;4185;41.506;24.938;2023-08-07T05:51:53;93073.31;;;19.03;76.88
8294;BME280;4185;41.506;24.938;2023-08-07T05:54:20;93077.91;;;19.15;76.45
8294;BME280;4185;41.506;24.938;2023-08-07T05:56:48;93080.81;;;19.25;76.14
8294;BME280;4185;41.506;24.938;2023-08-07T05:59:15;93071.50;;;19.35;76.18
8294;BME280;4185;41.506;24.938;2023-08-07T06:01:42;93072.22;;;19.43;76.37
8294;BME280;4185;41.506;24.938;2023-08-07T06:04:08;93077.72;;;19.51;76.58
8294;BME280;4185;41.506;24.938;2023-08-07T06:06:35;93083.41;;;19.61;76.63
8294;BME280;4185;41.506;24.938;2023-08-07T06:09:04;93070.50;;;19.71;77.11
8294;BME280;4185;41.506;24.938;2023-08-07T06:11:31;93079.53;;;19.79;75.96
8294;BME280;4185;41.506;24.938;2023-08-07T06:14:00;93080.59;;;19.83;74.85
8294;BME280;4185;41.506;24.938;2023-08-07T06:16:26;93071.03;;;19.92;75.70
8294;BME280;4185;41.506;24.938;2023-08-07T06:18:53;93074.84;;;20.04;75.78
8294;BME280;4185;41.506;24.938;2023-08-07T06:21:20;93076.28;;;20.12;74.28
8294;BME280;4185;41.506;24.938;2023-08-07T06:23:47;93074.44;;;20.22;73.78
8294;BME280;4185;41.506;24.938;2023-08-07T06:26:14;93066.84;;;20.30;74.36
8294;BME280;4185;41.506;24.938;2023-08-07T06:28:41;93060.75;;;20.39;71.95
8294;BME280;4185;41.506;24.938;2023-08-07T06:31:10;93061.63;;;20.49;72.93
8294;BME280;4185;41.506;24.938;2023-08-07T06:33:37;93054.75;;;20.58;72.80
8294;BME280;4185;41.506;24.938;2023-08-07T06:36:06;93055.63;;;20.68;72.60
8294;BME280;4185;41.506;24.938;2023-08-07T06:38:33;93062.16;;;20.80;71.75
8294;BME280;4185;41.506;24.938;2023-08-07T06:40:59;93058.44;;;20.85;72.00
8294;BME280;4185;41.506;24.938;2023-08-07T06:43:26;93056.38;;;20.93;71.54
8294;BME280;4185;41.506;24.938;2023-08-07T06:45:54;93056.66;;;21.05;70.97
8294;BME280;4185;41.506;24.938;2023-08-07T06:48:22;93063.94;;;21.17;69.60
8294;BME280;4185;41.506;24.938;2023-08-07T06:50:49;93058.56;;;21.19;69.26
8294;BME280;4185;41.506;24.938;2023-08-07T06:53:16;93067.88;;;21.31;69.13
8294;BME280;4185;41.506;24.938;2023-08-07T06:55:44;93065.94;;;21.41;68.17
8294;BME280;4185;41.506;24.938;2023-08-07T06:58:11;93073.78;;;21.52;66.55
8294;BME280;4185;41.506;24.938;2023-08-07T07:00:38;93068.72;;;21.58;66.72
8294;BME280;4185;41.506;24.938;2023-08-07T07:03:04;93072.16;;;21.66;65.82
8294;BME280;4185;41.506;24.938;2023-08-07T07:05:34;93068.00;;;21.75;64.67
8294;BME280;4185;41.506;24.938;2023-08-07T07:08:01;93075.13;;;21.86;64.00
8294;BME280;4185;41.506;24.938;2023-08-07T07:10:28;93062.09;;;21.96;62.40
8294;BME280;4185;41.506;24.938;2023-08-07T07:12:55;93064.97;;;22.05;61.18
8294;BME280;4185;41.506;24.938;2023-08-07T07:15:22;93067.81;;;22.15;60.84
8294;BME280;4185;41.506;24.938;2023-08-07T07:17:49;93062.91;;;22.23;59.42
8294;BME280;4185;41.506;24.938;2023-08-07T07:20:16;93070.06;;;22.26;59.81
8294;BME280;4185;41.506;24.938;2023-08-07T07:22:44;93074.94;;;22.35;57.78
8294;BME280;4185;41.506;24.938;2023-08-07T07:25:11;93075.72;;;22.45;59.20
8294;BME280;4185;41.506;24.938;2023-08-07T07:27:39;93070.44;;;22.56;58.30
8294;BME280;4185;41.506;24.938;2023-08-07T07:30:07;93070.34;;;22.64;58.78
8294;BME280;4185;41.506;24.938;2023-08-07T07:32:33;93074.06;;;22.76;58.76
8294;BME280;4185;41.506;24.938;2023-08-07T07:35:00;93070.91;;;22.89;59.11
8294;BME280;4185;41.506;24.938;2023-08-07T07:37:27;93071.69;;;22.99;57.41
8294;BME280;4185;41.506;24.938;2023-08-07T07:39:56;93073.63;;;23.06;57.25
8294;BME280;4185;41.506;24.938;2023-08-07T07:42:22;93076.13;;;23.12;57.31
8294;BME280;4185;41.506;24.938;2023-08-07T07:44:49;93069.47;;;23.24;57.76
8294;BME280;4185;41.506;24.938;2023-08-07T07:47:16;93069.81;;;23.38;59.25
8294;BME280;4185;41.506;24.938;2023-08-07T07:49:44;93068.38;;;23.46;58.44
8294;BME280;4185;41.506;24.938;2023-08-07T07:52:12;93060.66;;;23.54;56.44
8294;BME280;4185;41.506;24.938;2023-08-07T07:54:38;93071.22;;;23.65;56.64
8294;BME280;4185;41.506;24.938;2023-08-07T07:57:07;93068.16;;;23.80;58.79
8294;BME280;4185;41.506;24.938;2023-08-07T07:59:33;93077.69;;;23.96;57.83
8294;BME280;4185;41.506;24.938;2023-08-07T08:02:00;93083.56;;;24.10;55.34
8294;BME280;4185;41.506;24.938;2023-08-07T08:04:27;93060.63;;;24.19;54.47
8294;BME280;4185;41.506;24.938;2023-08-07T08:06:53;93068.81;;;24.36;54.87
8294;BME280;4185;41.506;24.938;2023-08-07T08:09:20;93066.00;;;24.46;54.46
8294;BME280;4185;41.506;24.938;2023-08-07T08:11:47;93063.94;;;24.56;54.18
8294;BME280;4185;41.506;24.938;2023-08-07T08:14:15;93060.59;;;24.67;53.26
8294;BME280;4185;41.506;24.938;2023-08-07T08:16:42;93054.44;;;24.78;53.71
8294;BME280;4185;41.506;24.938;2023-08-07T08:19:08;93064.81;;;24.87;53.42
8294;BME280;4185;41.506;24.938;2023-08-07T08:21:35;93071.06;;;24.97;53.00
8294;BME280;4185;41.506;24.938;2023-08-07T08:24:02;93066.94;;;25.07;52.62
8294;BME280;4185;41.506;24.938;2023-08-07T08:26:29;93059.75;;;25.14;51.93
8294;BME280;4185;41.506;24.938;2023-08-07T08:28:56;93062.38;;;25.12;51.98
8294;BME280;4185;41.506;24.938;2023-08-07T08:31:24;93075.22;;;25.17;52.13
8294;BME280;4185;41.506;24.938;2023-08-07T08:33:51;93065.59;;;25.18;51.33
8294;BME280;4185;41.506;24.938;2023-08-07T08:36:18;93070.34;;;25.27;51.38
8294;BME280;4185;41.506;24.938;2023-08-07T08:38:44;93069.53;;;25.15;52.22
8294;BME280;4185;41.506;24.938;2023-08-07T08:41:13;93067.38;;;25.04;52.50
8294;BME280;4185;41.506;24.938;2023-08-07T08:43:43;93081.06;;;25.21;51.79
8294;BME280;4185;41.506;24.938;2023-08-07T08:46:14;93080.44;;;25.32;52.15
8294;BME280;4185;41.506;24.938;2023-08-07T08:48:45;93074.16;;;25.32;50.06
8294;BME280;4185;41.506;24.938;2023-08-07T08:51:13;93074.41;;;25.45;50.88
8294;BME280;4185;41.506;24.938;2023-08-07T08:53:40;93076.25;;;25.52;51.05
8294;BME280;4185;41.506;24.938;2023-08-07T08:56:08;93076.75;;;25.49;50.24
8294;BME280;4185;41.506;24.938;2023-08-07T08:58:35;93074.28;;;25.43;50.83
8294;BME280;4185;41.506;24.938;2023-08-07T09:01:02;93082.19;;;25.37;49.90
8294;BME280;4185;41.506;24.938;2023-08-07T09:03:30;93072.19;;;25.53;50.28
8294;BME280;4185;41.506;24.938;2023-08-07T09:05:59;93071.66;;;25.66;51.20
8294;BME280;4185;41.506;24.938;2023-08-07T09:08:27;93073.53;;;25.73;51.51
8294;BME280;4185;41.506;24.938;2023-08-07T09:10:55;93072.94;;;25.75;49.62
8294;BME280;4185;41.506;24.938;2023-08-07T09:13:23;93066.00;;;25.85;50.41
8294;BME280;4185;41.506;24.938;2023-08-07T09:15:51;93076.97;;;25.83;49.40
8294;BME280;4185;41.506;24.938;2023-08-07T09:18:18;93075.53;;;25.82;48.87
8294;BME280;4185;41.506;24.938;2023-08-07T09:20:45;93065.56;;;25.58;48.08
8294;BME280;4185;41.506;24.938;2023-08-07T09:23:14;93067.97;;;25.73;50.76
8294;BME280;4185;41.506;24.938;2023-08-07T09:25:42;93063.72;;;26.03;49.08
8294;BME280;4185;41.506;24.938;2023-08-07T09:28:09;93066.56;;;26.14;45.55
8294;BME280;4185;41.506;24.938;2023-08-07T09:30:36;93067.72;;;26.32;48.21
8294;BME280;4185;41.506;24.938;2023-08-07T09:33:04;93077.09;;;26.48;47.84
8294;BME280;4185;41.506;24.938;2023-08-07T09:35:31;93067.44;;;26.50;47.36
8294;BME280;4185;41.506;24.938;2023-08-07T09:37:58;93065.47;;;26.52;47.67
8294;BME280;4185;41.506;24.938;2023-08-07T09:40:27;93078.56;;;26.50;48.49
8294;BME280;4185;41.506;24.938;2023-08-07T09:42:54;93068.16;;;26.50;48.70
8294;BME280;4185;41.506;24.938;2023-08-07T09:45:22;93068.03;;;26.48;47.95
8294;BME280;4185;41.506;24.938;2023-08-07T09:47:58;93072.19;;;26.59;47.85
8294;BME280;4185;41.506;24.938;2023-08-07T09:50:26;93068.44;;;26.66;47.75
8294;BME280;4185;41.506;24.938;2023-08-07T09:52:53;93066.22;;;26.74;47.79
8294;BME280;4185;41.506;24.938;2023-08-07T09:55:20;93071.38;;;26.68;47.90
8294;BME280;4185;41.506;24.938;2023-08-07T09:57:49;93079.00;;;26.34;48.28
8294;BME280;4185;41.506;24.938;2023-08-07T10:00:16;93074.78;;;26.12;48.30
8294;BME280;4185;41.506;24.938;2023-08-07T10:02:45;93062.09;;;26.21;48.60
8294;BME280;4185;41.506;24.938;2023-08-07T10:05:12;93056.16;;;26.48;48.25
8294;BME280;4185;41.506;24.938;2023-08-07T10:07:40;93059.53;;;26.67;45.32
8294;BME280;4185;41.506;24.938;2023-08-07T10:10:08;93085.25;;;26.77;47.58
8294;BME280;4185;41.506;24.938;2023-08-07T10:12:36;93066.81;;;26.72;43.83
8294;BME280;4185;41.506;24.938;2023-08-07T10:15:05;93056.88;;;26.81;43.56
8294;BME280;4185;41.506;24.938;2023-08-07T10:17:32;93048.56;;;26.92;45.13
8294;BME280;4185;41.506;24.938;2023-08-07T10:19:59;93056.44;;;26.96;46.80
8294;BME280;4185;41.506;24.938;2023-08-07T10:22:29;93048.94;;;27.10;46.08
8294;BME280;4185;41.506;24.938;2023-08-07T10:24:59;93048.13;;;27.30;46.34
8294;BME280;4185;41.506;24.938;2023-08-07T10:27:29;93050.69;;;27.38;46.79
8294;BME280;4185;41.506;24.938;2023-08-07T10:29:57;93035.53;;;27.41;47.22
8294;BME280;4185;41.506;24.938;2023-08-07T10:32:27;93049.00;;;27.33;45.58
8294;BME280;4185;41.506;24.938;2023-08-07T10:34:55;93048.38;;;27.23;46.44
8294;BME280;4185;41.506;24.938;2023-08-07T10:37:41;93044.81;;;26.99;46.16
8294;BME280;4185;41.506;24.938;2023-08-07T10:40:10;93042.88;;;27.13;45.64
8294;BME280;4185;41.506;24.938;2023-08-07T10:42:58;93047.53;;;27.32;45.08
8294;BME280;4185;41.506;24.938;2023-08-07T10:45:27;93037.59;;;27.64;44.24
8294;BME280;4185;41.506;24.938;2023-08-07T10:48:02;93053.09;;;27.78;44.25
8294;BME280;4185;41.506;24.938;2023-08-07T10:50:30;93042.78;;;27.69;41.53
8294;BME280;4185;41.506;24.938;2023-08-07T10:53:00;93043.25;;;27.77;42.48
8294;BME280;4185;41.506;24.938;2023-08-07T10:55:31;93044.22;;;27.93;43.71
8294;BME280;4185;41.506;24.938;2023-08-07T10:57:59;93050.16;;;27.99;43.50
8294;BME280;4185;41.506;24.938;2023-08-07T11:00:26;93047.03;;;27.82;43.98
8294;BME280;4185;41.506;24.938;2023-08-07T11:02:53;93044.34;;;27.84;44.40
8294;BME280;4185;41.506;24.938;2023-08-07T11:05:23;93045.56;;;27.69;44.11
8294;BME280;4185;41.506;24.938;2023-08-07T11:07:51;93046.56;;;27.39;44.71
8294;BME280;4185;41.506;24.938;2023-08-07T11:10:20;93048.50;;;27.48;45.48
8294;BME280;4185;41.506;24.938;2023-08-07T11:12:46;93041.47;;;27.47;45.46
8294;BME280;4185;41.506;24.938;2023-08-07T11:15:14;93044.59;;;27.76;45.59
8294;BME280;4185;41.506;24.938;2023-08-07T11:17:41;93031.22;;;27.98;44.64
8294;BME280;4185;41.506;24.938;2023-08-07T11:20:09;93035.69;;;28.14;44.49
8294;BME280;4185;41.506;24.938;2023-08-07T11:22:39;93034.53;;;28.31;44.26
8294;BME280;4185;41.506;24.938;2023-08-07T11:25:07;93024.53;;;28.39;43.41
8294;BME280;4185;41.506;24.938;2023-08-07T11:27:39;93036.44;;;28.51;44.79
8294;BME280;4185;41.506;24.938;2023-08-07T11:30:11;93024.34;;;28.60;44.48
8294;BME280;4185;41.506;24.938;2023-08-07T11:32:38;93016.19;;;28.64;42.80
8294;BME280;4185;41.506;24.938;2023-08-07T11:35:06;93013.22;;;28.74;43.74
8294;BME280;4185;41.506;24.938;2023-08-07T11:37:33;93021.44;;;28.84;43.24
8294;BME280;4185;41.506;24.938;2023-08-07T11:40:03;93027.47;;;28.92;42.44
8294;BME280;4185;41.506;24.938;2023-08-07T11:42:29;93036.19;;;28.72;39.85
8294;BME280;4185;41.506;24.938;2023-08-07T11:44:56;93046.16;;;28.39;38.87
8294;BME280;4185;41.506;24.938;2023-08-07T11:47:23;93033.28;;;28.09;39.42
8294;BME280;4185;41.506;24.938;2023-08-07T11:49:52;93019.56;;;27.90;40.86
8294;BME280;4185;41.506;24.938;2023-08-07T11:52:19;93026.63;;;27.91;42.20
8294;BME280;4185;41.506;24.938;2023-08-07T11:54:47;93029.41;;;27.79;42.14
8294;BME280;4185;41.506;24.938;2023-08-07T11:57:17;93038.16;;;27.97;41.99
8294;BME280;4185;41.506;24.938;2023-08-07T11:59:48;93031.81;;;28.08;43.19
8294;BME280;4185;41.506;24.938;2023-08-07T12:02:15;93030.63;;;27.88;44.60
8294;BME280;4185;41.506;24.938;2023-08-07T12:04:42;93022.03;;;27.95;44.46
8294;BME280;4185;41.506;24.938;2023-08-07T12:07:09;93014.50;;;28.34;44.57
8294;BME280;4185;41.506;24.938;2023-08-07T12:09:36;93028.38;;;28.57;45.38
8294;BME280;4185;41.506;24.938;2023-08-07T12:12:04;93028.44;;;28.71;44.69
8294;BME280;4185;41.506;24.938;2023-08-07T12:14:33;93019.31;;;28.70;44.62
8294;BME280;4185;41.506;24.938;2023-08-07T12:17:01;93012.44;;;28.85;45.10
8294;BME280;4185;41.506;24.938;2023-08-07T12:19:36;93014.13;;;29.04;43.94
8294;BME280;4185;41.506;24.938;2023-08-07T12:22:06;93020.84;;;28.99;43.25
8294;BME280;4185;41.506;24.938;2023-08-07T12:24:35;93016.41;;;28.94;42.57
8294;BME280;4185;41.506;24.938;2023-08-07T12:27:02;93019.50;;;29.00;43.83
8294;BME280;4185;41.506;24.938;2023-08-07T12:29:29;93012.22;;;29.20;43.71
8294;BME280;4185;41.506;24.938;2023-08-07T12:31:57;93020.84;;;29.37;44.17
8294;BME280;4185;41.506;24.938;2023-08-07T12:34:28;93019.69;;;29.29;42.24
8294;BME280;4185;41.506;24.938;2023-08-07T12:36:55;93009.03;;;29.39;42.84
8294;BME280;4185;41.506;24.938;2023-08-07T12:39:22;93003.09;;;29.33;42.09
8294;BME280;4185;41.506;24.938;2023-08-07T12:41:48;93021.78;;;29.42;41.33
8294;BME280;4185;41.506;24.938;2023-08-07T12:44:15;92996.06;;;29.32;41.39
8294;BME280;4185;41.506;24.938;2023-08-07T12:46:42;93012.88;;;29.59;40.17
8294;BME280;4185;41.506;24.938;2023-08-07T12:49:10;93017.84;;;29.47;38.46
8294;BME280;4185;41.506;24.938;2023-08-07T12:51:37;93012.63;;;29.28;39.38
8294;BME280;4185;41.506;24.938;2023-08-07T12:54:03;93014.84;;;29.29;38.86
8294;BME280;4185;41.506;24.938;2023-08-07T12:56:30;93016.81;;;29.40;40.54
8294;BME280;4185;41.506;24.938;2023-08-07T12:58:57;93017.72;;;29.31;38.72
8294;BME280;4185;41.506;24.938;2023-08-07T13:01:24;93015.00;;;29.20;39.82
8294;BME280;4185;41.506;24.938;2023-08-07T13:03:51;93015.94;;;29.11;39.60
8294;BME280;4185;41.506;24.938;2023-08-07T13:06:20;93002.03;;;29.13;40.96
8294;BME280;4185;41.506;24.938;2023-08-07T13:08:47;93013.88;;;29.38;40.92
8294;BME280;4185;41.506;24.938;2023-08-07T13:11:13;93008.41;;;29.40;40.36
8294;BME280;4185;41.506;24.938;2023-08-07T13:13:40;93007.28;;;29.59;39.79